createdAt,value
2022-10-14T00:02:23.075Z,8.90
2022-10-14T00:04:50.202Z,8.80
2022-10-14T00:07:17.042Z,8.80
2022-10-14T00:09:43.750Z,8.80
2022-10-14T00:12:13.702Z,8.80
2022-10-14T00:14:41.252Z,8.70
2022-10-14T00:17:07.994Z,8.80
2022-10-14T00:19:34.770Z,8.80
2022-10-14T00:22:01.931Z,8.70
2022-10-14T00:24:28.738Z,8.60
2022-10-14T00:26:55.488Z,8.50
2022-10-14T00:29:22.428Z,8.60
2022-10-14T00:31:49.180Z,8.50
2022-10-14T00:34:16.104Z,8.40
2022-10-14T00:36:43.910Z,8.50
2022-10-14T00:39:15.055Z,8.50
2022-10-14T00:41:42.160Z,8.50
2022-10-14T00:44:15.049Z,8.40
2022-10-14T00:46:42.902Z,8.30
2022-10-14T00:49:20.498Z,8.30
2022-10-14T00:51:55.429Z,8.20
2022-10-14T00:54:24.280Z,8.40
2022-10-14T00:56:52.458Z,8.40
2022-10-14T00:59:19.410Z,8.30
2022-10-14T01:01:46.146Z,8.50
2022-10-14T01:04:13.019Z,8.50
2022-10-14T01:06:42.226Z,8.60
2022-10-14T01:09:27.899Z,8.50
2022-10-14T01:12:29.184Z,8.50
2022-10-14T01:15:17.311Z,8.50
2022-10-14T01:17:47.149Z,8.50
2022-10-14T01:20:23.332Z,8.40
2022-10-14T01:23:08.786Z,8.50
2022-10-14T01:25:44.463Z,8.50
2022-10-14T01:28:44.192Z,8.60
2022-10-14T01:31:16.630Z,8.50
2022-10-14T01:33:44.874Z,8.30
2022-10-14T01:36:11.746Z,8.30
2022-10-14T01:38:45.010Z,8.20
2022-10-14T01:41:22.156Z,8.10
2022-10-14T01:43:50.584Z,8.20
2022-10-14T01:46:18.473Z,8.30
2022-10-14T01:48:47.563Z,8.20
2022-10-14T01:51:18.403Z,8.40
2022-10-14T01:53:51.079Z,8.40
2022-10-14T01:56:17.913Z,8.30
2022-10-14T01:58:45.100Z,8.40
2022-10-14T02:01:11.928Z,8.20
2022-10-14T02:03:42.614Z,8.30
2022-10-14T02:06:16.542Z,8.20
2022-10-14T02:08:58.633Z,8.20
2022-10-14T02:11:25.934Z,8.40
2022-10-14T02:13:57.570Z,8.40
2022-10-14T02:16:38.185Z,8.50
2022-10-14T02:19:20.639Z,8.50
2022-10-14T02:22:01.683Z,8.50
2022-10-14T02:24:32.705Z,8.40
2022-10-14T02:27:01.719Z,8.50
2022-10-14T02:29:29.172Z,8.50
2022-10-14T02:31:56.858Z,8.60
2022-10-14T02:34:24.894Z,8.40
2022-10-14T02:36:52.825Z,8.30
2022-10-14T02:39:22.524Z,8.30
2022-10-14T02:41:49.553Z,8.30
2022-10-14T02:44:16.309Z,8.30
2022-10-14T02:46:46.234Z,8.20
2022-10-14T02:49:13.077Z,8.30
2022-10-14T02:51:39.826Z,8.30
2022-10-14T02:54:10.978Z,8.20
2022-10-14T02:56:37.734Z,8.30
2022-10-14T02:59:04.642Z,8.20
2022-10-14T03:01:36.607Z,8.40
2022-10-14T03:04:05.592Z,8.30
2022-10-14T03:06:32.796Z,8.30
2022-10-14T03:09:00.221Z,8.50
2022-10-14T03:11:27.131Z,8.30
2022-10-14T03:13:59.965Z,8.40
2022-10-14T03:16:27.092Z,8.30
2022-10-14T03:18:54.197Z,8.40
2022-10-14T03:21:35.106Z,8.50
2022-10-14T03:24:01.854Z,8.40
2022-10-14T03:26:33.306Z,8.50
2022-10-14T03:29:00.094Z,8.50
2022-10-14T03:31:41.202Z,8.40
2022-10-14T03:34:21.432Z,8.40
2022-10-14T03:36:53.775Z,8.20
2022-10-14T03:39:21.374Z,8.20
2022-10-14T03:41:50.294Z,8.30
2022-10-14T03:44:22.023Z,8.30
2022-10-14T03:47:11.923Z,8.30
2022-10-14T03:49:38.960Z,8.40
2022-10-14T03:52:12.950Z,8.30
2022-10-14T03:54:41.825Z,8.20
2022-10-14T03:57:09.855Z,8.20
2022-10-14T03:59:44.346Z,8.10
2022-10-14T04:02:11.047Z,8.20
2022-10-14T04:04:40.758Z,8.20
2022-10-14T04:07:08.113Z,8.20
2022-10-14T04:09:35.284Z,8.20
2022-10-14T04:12:02.065Z,8.20
2022-10-14T04:14:43.376Z,8.10
2022-10-14T04:17:10.798Z,8.10
2022-10-14T04:19:37.841Z,8.00
2022-10-14T04:22:05.074Z,7.90
2022-10-14T04:24:33.415Z,8.10
2022-10-14T04:27:01.553Z,8.20
2022-10-14T04:29:40.232Z,7.90
2022-10-14T04:32:13.852Z,8.00
2022-10-14T04:34:40.505Z,8.10
2022-10-14T04:37:08.624Z,8.20
2022-10-14T04:39:53.915Z,8.10
2022-10-14T04:44:52.499Z,7.80
2022-10-14T04:47:26.342Z,7.90
2022-10-14T04:49:58.354Z,7.90
2022-10-14T04:52:25.064Z,8.00
2022-10-14T04:54:57.477Z,7.80
2022-10-14T04:57:34.556Z,7.80
2022-10-14T05:00:02.253Z,7.90
2022-10-14T05:02:49.258Z,8.00
2022-10-14T05:05:16.636Z,8.00
2022-10-14T05:07:46.993Z,8.00
2022-10-14T05:10:39.578Z,8.00
2022-10-14T05:13:10.885Z,8.10
2022-10-14T05:15:48.752Z,8.30
2022-10-14T05:18:15.569Z,8.40
2022-10-14T05:20:50.603Z,8.40
2022-10-14T05:23:20.163Z,8.40
2022-10-14T05:25:48.637Z,8.50
2022-10-14T05:28:16.486Z,8.60
2022-10-14T05:30:44.876Z,8.60
2022-10-14T05:33:11.778Z,8.70
2022-10-14T05:35:58.067Z,8.70
2022-10-14T05:38:26.408Z,8.80
2022-10-14T05:40:57.134Z,8.90
2022-10-14T05:43:29.277Z,9.00
2022-10-14T05:45:59.377Z,9.00
2022-10-14T05:48:28.501Z,9.20
2022-10-14T05:50:55.836Z,9.20
2022-10-14T05:53:25.325Z,9.20
2022-10-14T05:56:00.772Z,9.30
2022-10-14T05:58:27.489Z,9.30
2022-10-14T06:00:54.558Z,9.40
2022-10-14T06:03:21.957Z,9.30
2022-10-14T06:05:50.255Z,9.40
2022-10-14T06:08:16.954Z,9.40
2022-10-14T06:10:44.770Z,9.50
2022-10-14T06:13:11.417Z,9.60
2022-10-14T06:15:39.855Z,9.60
2022-10-14T06:18:07.541Z,9.60
2022-10-14T06:20:34.295Z,9.70
2022-10-14T06:23:01.056Z,9.80
2022-10-14T06:25:27.955Z,9.80
2022-10-14T06:27:54.685Z,9.90
2022-10-14T06:30:21.590Z,9.90
2022-10-14T06:32:48.233Z,10.00
2022-10-14T06:35:14.919Z,10.00
2022-10-14T06:37:44.440Z,10.00
2022-10-14T06:40:11.331Z,10.00
2022-10-14T06:42:38.074Z,10.00
2022-10-14T06:45:05.899Z,10.00
2022-10-14T06:47:32.849Z,10.10
2022-10-14T06:49:59.566Z,10.20
2022-10-14T06:52:26.256Z,10.20
2022-10-14T06:54:52.901Z,10.30
2022-10-14T06:57:19.610Z,10.30
2022-10-14T06:59:46.323Z,10.10
2022-10-14T07:02:13.008Z,10.20
2022-10-14T07:04:39.938Z,10.30
2022-10-14T07:07:06.906Z,10.30
2022-10-14T07:09:33.634Z,10.50
2022-10-14T07:12:00.282Z,10.60
2022-10-14T07:14:26.999Z,10.60
2022-10-14T07:16:53.640Z,10.80
2022-10-14T07:19:20.287Z,11.00
2022-10-14T07:21:46.985Z,11.10
2022-10-14T07:24:13.626Z,11.10
2022-10-14T07:26:40.272Z,11.10
2022-10-14T07:29:07.556Z,11.10
2022-10-14T07:31:34.514Z,11.20
2022-10-14T07:34:02.938Z,11.20
2022-10-14T07:36:30.220Z,11.20
2022-10-14T07:38:56.907Z,11.20
2022-10-14T07:41:24.222Z,11.30
2022-10-14T07:43:52.557Z,11.40
2022-10-14T07:46:20.179Z,11.40
2022-10-14T07:48:56.796Z,11.40
2022-10-14T07:51:24.850Z,11.50
2022-10-14T07:53:51.697Z,11.70
2022-10-14T07:56:18.931Z,11.70
2022-10-14T07:58:45.646Z,11.60
2022-10-14T08:01:12.930Z,11.70
2022-10-14T08:03:39.644Z,11.80
2022-10-14T08:06:06.417Z,11.90
2022-10-14T08:08:33.422Z,11.90
2022-10-14T08:11:06.133Z,12.00
2022-10-14T08:13:33.154Z,12.10
2022-10-14T08:15:59.924Z,12.10
2022-10-14T08:18:26.939Z,12.10
2022-10-14T08:20:53.722Z,12.30
2022-10-14T08:23:20.803Z,12.40
2022-10-14T08:25:48.933Z,12.60
2022-10-14T08:28:15.684Z,13.00
2022-10-14T08:30:42.537Z,13.20
2022-10-14T08:33:09.351Z,13.20
2022-10-14T08:35:36.062Z,13.30
2022-10-14T08:38:02.817Z,13.40
2022-10-14T08:40:30.567Z,13.50
2022-10-14T08:43:01.568Z,13.60
2022-10-14T08:45:33.623Z,13.50
2022-10-14T08:48:02.926Z,13.70
2022-10-14T08:50:32.654Z,13.60
2022-10-14T08:53:02.532Z,13.70
2022-10-14T08:55:46.980Z,13.70
2022-10-14T08:58:13.800Z,13.80
2022-10-14T09:00:41.382Z,13.80
2022-10-14T09:03:20.683Z,13.70
2022-10-14T09:05:51.159Z,13.90
2022-10-14T09:08:19.544Z,14.10
2022-10-14T09:10:46.404Z,14.00
2022-10-14T09:13:18.755Z,14.10
2022-10-14T09:15:47.769Z,14.20
2022-10-14T09:20:42.647Z,14.40
2022-10-14T09:23:12.359Z,14.50
2022-10-14T09:25:40.483Z,14.50
2022-10-14T09:28:08.253Z,14.60
2022-10-14T09:30:36.615Z,14.60
2022-10-14T09:33:04.275Z,14.80
2022-10-14T09:35:33.312Z,14.80
2022-10-14T09:37:59.966Z,14.90
2022-10-14T09:40:30.949Z,14.70
2022-10-14T09:43:14.163Z,14.80
2022-10-14T09:45:48.883Z,15.20
2022-10-14T09:48:17.309Z,15.20
2022-10-14T09:50:49.310Z,15.20
2022-10-14T09:53:18.691Z,15.20
2022-10-14T09:55:47.641Z,15.10
2022-10-14T09:58:16.560Z,15.10
2022-10-14T10:00:44.804Z,15.20
2022-10-14T10:05:43.757Z,15.40
2022-10-14T10:08:19.432Z,15.50
2022-10-14T10:10:56.427Z,15.80
2022-10-14T10:13:30.636Z,15.90
2022-10-14T10:15:58.365Z,15.90
2022-10-14T10:18:25.242Z,16.20
2022-10-14T10:21:01.912Z,16.30
2022-10-14T10:23:28.624Z,16.10
2022-10-14T10:25:55.726Z,16.20
2022-10-14T10:28:29.460Z,16.10
2022-10-14T10:31:02.193Z,16.20
2022-10-14T10:33:41.999Z,16.30
2022-10-14T10:36:11.503Z,16.30
2022-10-14T10:38:44.531Z,16.10
2022-10-14T10:41:34.553Z,16.20
2022-10-14T10:44:04.308Z,16.40
2022-10-14T10:46:49.285Z,16.60
2022-10-14T10:49:22.098Z,16.40
2022-10-14T10:51:54.859Z,16.30
2022-10-14T10:54:40.497Z,16.30
2022-10-14T10:57:13.094Z,16.20
2022-10-14T11:02:27.497Z,16.60
2022-10-14T11:05:00.302Z,16.60
2022-10-14T11:07:45.993Z,16.40
2022-10-14T11:10:29.290Z,16.50
2022-10-14T11:13:14.990Z,16.40
2022-10-14T11:15:50.072Z,16.60
2022-10-14T11:18:25.919Z,16.50
2022-10-14T11:21:10.950Z,16.60
2022-10-14T11:23:43.499Z,16.60
2022-10-14T11:26:28.763Z,16.70
2022-10-14T11:29:00.631Z,16.90
2022-10-14T11:31:30.438Z,16.90
2022-10-14T11:34:03.301Z,17.10
2022-10-14T11:36:49.228Z,17.00
2022-10-14T11:39:15.848Z,17.40
2022-10-14T11:41:49.016Z,17.50
2022-10-14T11:44:19.959Z,17.30
2022-10-14T11:46:47.730Z,17.40
2022-10-14T11:49:22.514Z,17.00
2022-10-14T11:51:52.808Z,16.80
2022-10-14T11:54:38.583Z,17.00
2022-10-14T11:57:37.671Z,16.80
2022-10-14T12:00:05.532Z,16.60
2022-10-14T12:02:38.640Z,16.60
2022-10-14T12:05:26.966Z,16.50
2022-10-14T12:08:02.756Z,16.60
2022-10-14T12:10:33.725Z,16.30
2022-10-14T12:13:01.120Z,16.30
2022-10-14T12:15:28.425Z,16.30
2022-10-14T12:17:57.541Z,16.30
2022-10-14T12:20:42.670Z,16.20
2022-10-14T12:23:12.875Z,16.10
2022-10-14T12:25:46.833Z,16.10
2022-10-14T12:28:15.100Z,16.10
2022-10-14T12:30:41.890Z,16.00
2022-10-14T12:33:09.469Z,16.10
2022-10-14T12:35:47.597Z,16.10
2022-10-14T12:38:18.468Z,16.10
2022-10-14T12:40:45.283Z,16.10
2022-10-14T12:43:14.329Z,16.20
2022-10-14T12:45:49.387Z,16.30
2022-10-14T12:48:17.939Z,16.20
2022-10-14T12:50:45.145Z,16.20
2022-10-14T12:53:31.214Z,16.20
2022-10-14T12:55:59.398Z,16.20
2022-10-14T12:58:38.304Z,16.20
2022-10-14T13:01:07.040Z,16.10
2022-10-14T13:03:41.922Z,16.00
2022-10-14T13:06:27.506Z,16.00
2022-10-14T13:09:12.384Z,16.00
2022-10-14T13:11:39.893Z,16.00
2022-10-14T13:14:21.558Z,15.90
2022-10-14T13:16:51.015Z,15.90
2022-10-14T13:19:47.241Z,15.80
2022-10-14T13:22:33.120Z,15.70
2022-10-14T13:25:12.596Z,15.70
2022-10-14T13:27:45.459Z,15.60
2022-10-14T13:30:23.543Z,15.50
2022-10-14T13:32:55.145Z,15.50
2022-10-14T13:35:29.349Z,15.70
2022-10-14T13:37:59.070Z,15.50
2022-10-14T13:40:27.476Z,15.60
2022-10-14T13:42:57.177Z,15.70
2022-10-14T13:45:29.188Z,15.80
2022-10-14T13:47:56.075Z,15.70
2022-10-14T13:50:23.731Z,15.70
2022-10-14T13:52:54.217Z,15.80
2022-10-14T13:55:21.840Z,15.90
2022-10-14T13:58:12.687Z,15.80
2022-10-14T14:00:46.864Z,16.00
2022-10-14T14:03:29.433Z,15.90
2022-10-14T14:05:56.694Z,15.90
2022-10-14T14:08:42.499Z,15.90
2022-10-14T14:11:18.069Z,15.90
2022-10-14T14:13:52.379Z,15.90
2022-10-14T14:16:24.013Z,15.80
2022-10-14T14:19:04.039Z,15.80
2022-10-14T14:21:34.372Z,15.70
2022-10-14T14:24:01.746Z,15.80
2022-10-14T14:26:36.019Z,15.80
2022-10-14T14:29:05.660Z,15.70
2022-10-14T14:32:01.441Z,15.60
2022-10-14T14:34:21.162Z,15.60
2022-10-14T14:36:51.890Z,15.70
2022-10-14T14:39:28.977Z,15.70
2022-10-14T14:41:58.419Z,15.70
2022-10-14T14:44:26.654Z,15.80
2022-10-14T14:46:56.424Z,15.70
2022-10-14T14:49:26.634Z,15.70
2022-10-14T14:51:53.770Z,15.70
2022-10-14T14:54:21.615Z,15.50
2022-10-14T14:57:02.197Z,15.30
2022-10-14T14:59:30.245Z,15.20
2022-10-14T15:04:32.169Z,15.10
2022-10-14T15:07:00.189Z,15.00
2022-10-14T15:09:37.936Z,14.90
2022-10-14T15:12:06.661Z,15.10
2022-10-14T15:14:34.434Z,15.00
2022-10-14T15:17:01.764Z,15.10
2022-10-14T15:19:32.949Z,15.00
2022-10-14T15:22:22.886Z,14.90
2022-10-14T15:25:04.347Z,14.80
2022-10-14T15:27:33.796Z,14.80
2022-10-14T15:30:19.027Z,14.80
2022-10-14T15:32:45.994Z,14.80
2022-10-14T15:35:13.722Z,14.80
2022-10-14T15:37:40.588Z,14.70
2022-10-14T15:40:13.645Z,14.60
2022-10-14T15:42:40.631Z,14.50
2022-10-14T15:45:08.011Z,14.40
2022-10-14T15:47:35.189Z,14.30
2022-10-14T15:50:05.095Z,14.20
2022-10-14T15:52:32.104Z,14.10
2022-10-14T15:54:59.130Z,14.10
2022-10-14T15:57:26.226Z,14.10
2022-10-14T15:59:53.145Z,14.20
2022-10-14T16:02:22.840Z,14.20
2022-10-14T16:05:15.008Z,13.90
2022-10-14T16:07:38.060Z,13.80
2022-10-14T16:10:05.112Z,13.80
2022-10-14T16:12:31.774Z,13.70
2022-10-14T16:14:59.731Z,13.70
2022-10-14T16:17:26.436Z,13.60
2022-10-14T16:19:53.117Z,13.60
2022-10-14T16:22:19.736Z,13.50
2022-10-14T16:24:46.446Z,13.50
2022-10-14T16:27:13.096Z,13.50
2022-10-14T16:29:39.766Z,13.50
2022-10-14T16:32:06.566Z,13.40
2022-10-14T16:34:33.191Z,13.40
2022-10-14T16:36:59.862Z,13.30
2022-10-14T16:39:26.522Z,13.30
2022-10-14T16:41:53.198Z,13.30
2022-10-14T16:44:19.957Z,13.20
2022-10-14T16:46:46.592Z,13.20
2022-10-14T16:49:13.591Z,13.10
2022-10-14T16:51:41.409Z,13.00
2022-10-14T16:54:08.257Z,13.00
2022-10-14T16:56:34.902Z,12.90
2022-10-14T16:59:01.903Z,12.70
2022-10-14T17:01:29.217Z,12.70
2022-10-14T17:03:56.497Z,12.70
2022-10-14T17:06:26.669Z,12.60
2022-10-14T17:08:53.405Z,12.70
2022-10-14T17:11:20.322Z,12.70
2022-10-14T17:13:47.174Z,12.70
2022-10-14T17:16:13.852Z,12.60
2022-10-14T17:18:42.733Z,12.60
2022-10-14T17:21:13.164Z,12.50
2022-10-14T17:23:40.708Z,12.50
2022-10-14T17:26:07.457Z,12.50
2022-10-14T17:28:35.375Z,12.40
2022-10-14T17:31:02.465Z,12.50
2022-10-14T17:33:29.451Z,12.40
2022-10-14T17:35:59.473Z,12.40
2022-10-14T17:38:27.931Z,12.40
2022-10-14T17:41:05.160Z,12.40
2022-10-14T17:43:35.830Z,12.40
2022-10-14T17:46:03.592Z,12.30
2022-10-14T17:48:31.519Z,12.20
2022-10-14T17:50:58.530Z,12.20
2022-10-14T17:53:25.272Z,12.20
2022-10-14T17:55:55.302Z,12.10
2022-10-14T17:58:24.793Z,12.10
2022-10-14T18:00:51.631Z,12.10
2022-10-14T18:03:18.297Z,12.10
2022-10-14T18:05:48.058Z,12.10
2022-10-14T18:08:15.928Z,12.00
2022-10-14T18:10:43.024Z,12.10
2022-10-14T18:13:10.194Z,11.90
2022-10-14T18:15:37.343Z,11.80
2022-10-14T18:18:04.244Z,11.90
2022-10-14T18:20:31.345Z,11.90
2022-10-14T18:22:58.333Z,11.80
2022-10-14T18:25:25.181Z,11.70
2022-10-14T18:27:52.798Z,11.60
2022-10-14T18:30:22.996Z,11.60
2022-10-14T18:32:51.016Z,11.70
2022-10-14T18:35:18.158Z,11.70
2022-10-14T18:37:44.932Z,11.80
2022-10-14T18:40:12.145Z,11.70
2022-10-14T18:42:38.887Z,11.70
2022-10-14T18:45:06.219Z,11.80
2022-10-14T18:47:33.188Z,11.90
2022-10-14T18:50:00.388Z,11.90
2022-10-14T18:52:27.195Z,11.90
2022-10-14T18:54:53.973Z,11.90
2022-10-14T18:57:21.803Z,11.80
2022-10-14T18:59:49.937Z,11.80
2022-10-14T19:02:17.117Z,11.80
2022-10-14T19:04:43.973Z,11.90
2022-10-14T19:07:11.368Z,11.80
2022-10-14T19:09:38.685Z,11.80
2022-10-14T19:12:05.898Z,11.80
2022-10-14T19:14:33.271Z,11.80
2022-10-14T19:17:00.245Z,11.80
2022-10-14T19:19:27.400Z,11.80
2022-10-14T19:21:54.600Z,11.80
2022-10-14T19:24:21.379Z,11.80
2022-10-14T19:26:48.588Z,11.70
2022-10-14T19:29:16.570Z,11.70
2022-10-14T19:31:43.782Z,11.70
2022-10-14T19:34:12.626Z,11.80
2022-10-14T19:36:39.837Z,11.80
2022-10-14T19:39:08.970Z,11.50
2022-10-14T19:41:36.439Z,11.60
2022-10-14T19:44:03.842Z,11.60
2022-10-14T19:46:31.062Z,11.50
2022-10-14T19:48:59.657Z,11.40
2022-10-14T19:51:26.627Z,11.30
2022-10-14T19:53:57.139Z,11.30
2022-10-14T19:56:24.592Z,11.20
2022-10-14T19:58:52.605Z,11.20
2022-10-14T20:01:20.284Z,11.30
2022-10-14T20:03:47.174Z,11.10
2022-10-14T20:06:13.984Z,11.10
2022-10-14T20:08:40.846Z,11.00
2022-10-14T20:11:09.082Z,11.10
2022-10-14T20:13:36.026Z,11.10
2022-10-14T20:16:03.673Z,11.20
2022-10-14T20:18:30.990Z,11.20
2022-10-14T20:20:58.062Z,11.10
2022-10-14T20:23:25.269Z,11.10
2022-10-14T20:25:52.009Z,11.10
2022-10-14T20:28:18.727Z,11.10
2022-10-14T20:30:45.937Z,11.10
2022-10-14T20:33:12.697Z,10.90
2022-10-14T20:35:39.402Z,10.90
2022-10-14T20:38:06.049Z,10.90
2022-10-14T20:40:36.252Z,10.90
2022-10-14T20:43:03.688Z,10.90
2022-10-14T20:45:30.555Z,10.80
2022-10-14T20:47:57.211Z,10.80
2022-10-14T20:50:23.935Z,10.80
2022-10-14T20:52:50.725Z,10.80
2022-10-14T20:55:17.364Z,10.70
2022-10-14T20:57:44.081Z,10.60
2022-10-14T21:00:11.024Z,10.70
2022-10-14T21:02:37.918Z,10.70
2022-10-14T21:05:04.771Z,10.60
2022-10-14T21:07:31.519Z,10.60
2022-10-14T21:09:58.170Z,10.60
2022-10-14T21:12:25.306Z,10.50
2022-10-14T21:14:52.230Z,10.60
2022-10-14T21:17:18.966Z,10.70
2022-10-14T21:19:47.452Z,10.50
2022-10-14T21:22:14.094Z,10.40
2022-10-14T21:24:40.766Z,10.40
2022-10-14T21:27:07.487Z,10.40
2022-10-14T21:29:34.254Z,10.40
2022-10-14T21:32:00.923Z,10.30
2022-10-14T21:34:27.643Z,10.30
2022-10-14T21:36:54.457Z,10.40
2022-10-14T21:39:21.173Z,10.40
2022-10-14T21:41:47.848Z,10.50
2022-10-14T21:44:15.291Z,10.50
2022-10-14T21:46:41.963Z,10.40
2022-10-14T21:49:10.272Z,10.40
2022-10-14T21:51:37.343Z,10.50
2022-10-14T21:54:04.378Z,10.40
2022-10-14T21:56:31.263Z,10.50
2022-10-14T21:58:58.211Z,10.50
2022-10-14T22:01:29.172Z,10.50
2022-10-14T22:04:00.816Z,10.50
2022-10-14T22:06:28.003Z,10.50
2022-10-14T22:08:55.625Z,10.50
2022-10-14T22:11:29.869Z,10.30
2022-10-14T22:13:57.263Z,10.30
2022-10-14T22:16:24.477Z,10.40
2022-10-14T22:18:52.374Z,10.30
2022-10-14T22:21:20.486Z,10.30
2022-10-14T22:23:47.727Z,10.10
2022-10-14T22:26:15.638Z,10.20
2022-10-14T22:28:42.463Z,10.20
2022-10-14T22:31:17.271Z,10.20
2022-10-14T22:33:43.917Z,10.10
2022-10-14T22:36:23.721Z,10.00
2022-10-14T22:38:51.626Z,10.10
2022-10-14T22:41:19.280Z,10.10
2022-10-14T22:43:49.782Z,10.10
2022-10-14T22:46:17.315Z,10.00
2022-10-14T22:48:43.976Z,10.00
2022-10-14T22:51:12.081Z,10.10
2022-10-14T22:53:39.287Z,10.10
2022-10-14T22:56:06.918Z,10.10
2022-10-14T22:58:33.857Z,10.10
2022-10-14T23:01:07.467Z,10.10
2022-10-14T23:03:34.560Z,10.10
2022-10-14T23:06:01.757Z,10.10
2022-10-14T23:08:28.533Z,10.10
2022-10-14T23:10:55.242Z,10.00
2022-10-14T23:13:21.885Z,10.00
2022-10-14T23:15:55.365Z,9.90
2022-10-14T23:18:22.236Z,9.90
2022-10-14T23:20:48.952Z,10.00
2022-10-14T23:23:15.826Z,9.90
2022-10-14T23:25:42.521Z,9.80
2022-10-14T23:28:09.381Z,9.80
2022-10-14T23:30:36.077Z,9.80
2022-10-14T23:33:02.749Z,9.80
2022-10-14T23:35:29.402Z,9.70
2022-10-14T23:37:56.163Z,9.70
2022-10-14T23:40:23.215Z,9.70
2022-10-14T23:42:49.850Z,9.80
2022-10-14T23:45:16.592Z,9.80
2022-10-14T23:47:43.295Z,9.60
2022-10-14T23:50:09.982Z,9.70
2022-10-14T23:52:36.652Z,9.70
2022-10-14T23:55:03.453Z,9.70
2022-10-14T23:57:30.141Z,9.60
2022-10-14T23:59:56.866Z,9.70
